createdAt,value
2019-03-21T00:02:00.809Z,96568.75
2019-03-21T00:04:31.175Z,96567.25
2019-03-21T00:07:00.688Z,96567.70
2019-03-21T00:09:30.201Z,96562.56
2019-03-21T00:12:08.998Z,96568.10
2019-03-21T00:14:52.137Z,96560.57
2019-03-21T00:17:37.713Z,96560.57
2019-03-21T00:20:14.131Z,96561.95
2019-03-21T00:22:43.692Z,96557.91
2019-03-21T00:25:17.624Z,96561.61
2019-03-21T00:27:47.129Z,96558.55
2019-03-21T00:30:27.919Z,96556.95
2019-03-21T00:33:16.795Z,96554.48
2019-03-21T00:39:10.023Z,96551.72
2019-03-21T00:41:58.860Z,96463.36
2019-03-21T00:44:28.389Z,96546.69
2019-03-21T00:46:57.891Z,96539.63
2019-03-21T00:49:27.404Z,96543.75
2019-03-21T00:51:57.073Z,96540.20
2019-03-21T00:54:26.624Z,96536.66
2019-03-21T00:57:15.454Z,96539.11
2019-03-21T00:59:55.905Z,96470.99
2019-03-21T01:02:44.746Z,96536.48
2019-03-21T01:05:27.000Z,96538.73
2019-03-21T01:08:15.899Z,96542.62
2019-03-21T01:10:58.034Z,96538.07
2019-03-21T01:13:34.983Z,96341.13
2019-03-21T01:16:04.480Z,96534.77
2019-03-21T01:18:37.341Z,96531.12
2019-03-21T01:21:06.841Z,96531.66
2019-03-21T01:23:36.370Z,96524.32
2019-03-21T01:26:09.625Z,96527.66
2019-03-21T01:28:39.143Z,96520.80
2019-03-21T01:31:08.639Z,96520.80
2019-03-21T01:33:38.140Z,96520.02
2019-03-21T01:36:08.819Z,96517.02
2019-03-21T01:38:38.326Z,96517.27
2019-03-21T01:41:18.069Z,96514.74
2019-03-21T01:43:47.579Z,96511.87
2019-03-21T01:46:24.482Z,96506.30
2019-03-21T01:48:54.000Z,96503.66
2019-03-21T01:51:23.519Z,96506.16
2019-03-21T01:53:55.165Z,96506.61
2019-03-21T01:56:25.495Z,96509.81
2019-03-21T01:58:55.004Z,96499.84
2019-03-21T02:01:24.538Z,96493.97
2019-03-21T02:03:54.110Z,96497.47
2019-03-21T02:06:23.626Z,96491.47
2019-03-21T02:08:53.125Z,96488.16
2019-03-21T02:11:22.629Z,96492.09
2019-03-21T02:13:52.158Z,96491.50
2019-03-21T02:16:21.648Z,96490.38
2019-03-21T02:18:51.154Z,96488.77
2019-03-21T02:21:21.931Z,96488.94
2019-03-21T02:23:51.454Z,96493.90
2019-03-21T02:26:21.072Z,96485.80
2019-03-21T02:28:50.571Z,96488.77
2019-03-21T02:31:20.086Z,96488.34
2019-03-21T02:33:49.592Z,96490.93
2019-03-21T02:36:19.103Z,96485.11
2019-03-21T02:38:48.641Z,96491.50
2019-03-21T02:41:18.536Z,96494.22
2019-03-21T02:43:48.034Z,96492.81
2019-03-21T02:46:18.797Z,96495.77
2019-03-21T02:48:48.366Z,96506.55
2019-03-21T02:51:17.894Z,96489.62
2019-03-21T02:53:47.380Z,96483.30
2019-03-21T02:56:24.159Z,96483.74
2019-03-21T02:58:53.734Z,96480.84
2019-03-21T03:01:43.082Z,96489.27
2019-03-21T03:07:13.365Z,96489.73
2019-03-21T03:09:42.925Z,96487.45
2019-03-21T03:12:12.626Z,96490.69
2019-03-21T03:14:42.127Z,96486.98
2019-03-21T03:17:11.619Z,96492.11
2019-03-21T03:19:41.133Z,96495.23
2019-03-21T03:22:10.636Z,96496.08
2019-03-21T03:24:40.161Z,96498.17
2019-03-21T03:27:09.682Z,96496.42
2019-03-21T03:29:39.216Z,96494.45
2019-03-21T03:32:08.733Z,96495.30
2019-03-21T03:34:38.237Z,96499.14
2019-03-21T03:37:07.758Z,96496.31
2019-03-21T03:39:37.271Z,96503.47
2019-03-21T03:42:06.777Z,96499.06
2019-03-21T03:44:36.295Z,96501.70
2019-03-21T03:47:05.843Z,96504.44
2019-03-21T03:49:35.343Z,96504.03
2019-03-21T03:52:04.884Z,96498.27
2019-03-21T03:54:35.469Z,96495.73
2019-03-21T03:57:05.076Z,96501.55
2019-03-21T03:59:34.609Z,96496.59
2019-03-21T04:02:04.173Z,96497.68
2019-03-21T04:04:33.664Z,96500.18
2019-03-21T04:07:03.209Z,96500.27
2019-03-21T04:09:32.704Z,96495.70
2019-03-21T04:12:02.358Z,96493.58
2019-03-21T04:14:31.867Z,96488.39
2019-03-21T04:17:01.391Z,96483.80
2019-03-21T04:19:30.916Z,96488.55
2019-03-21T04:22:00.445Z,96485.55
2019-03-21T04:24:30.195Z,96477.73
2019-03-21T04:26:59.897Z,96484.56
2019-03-21T04:29:29.478Z,96484.30
2019-03-21T04:31:58.998Z,96477.05
2019-03-21T04:34:28.537Z,96476.27
2019-03-21T04:36:58.089Z,96474.73
2019-03-21T04:39:27.558Z,96467.05
2019-03-21T04:41:57.142Z,96469.11
2019-03-21T04:44:26.642Z,96466.53
2019-03-21T04:46:56.160Z,96459.20
2019-03-21T04:49:25.681Z,96459.48
2019-03-21T04:51:55.226Z,96455.88
2019-03-21T04:54:24.767Z,96459.75
2019-03-21T04:56:54.283Z,96458.27
2019-03-21T05:02:44.443Z,96456.03
2019-03-21T05:05:15.175Z,96458.12
2019-03-21T05:07:44.691Z,96452.65
2019-03-21T05:10:16.789Z,96454.34
2019-03-21T05:12:46.336Z,96450.91
2019-03-21T05:15:23.263Z,96454.75
2019-03-21T05:17:57.422Z,96448.20
2019-03-21T05:20:30.193Z,96441.55
2019-03-21T05:23:00.333Z,96445.55
2019-03-21T05:25:29.836Z,96443.59
2019-03-21T05:27:59.428Z,96444.59
2019-03-21T05:30:42.703Z,96441.30
2019-03-21T05:33:12.250Z,96435.98
2019-03-21T05:35:41.841Z,96431.64
2019-03-21T05:38:51.575Z,96430.62
2019-03-21T05:41:21.151Z,96430.31
2019-03-21T05:43:57.950Z,96430.00
2019-03-21T05:46:27.786Z,96427.48
2019-03-21T05:48:57.283Z,96428.97
2019-03-21T05:51:26.784Z,96429.25
2019-03-21T05:53:56.312Z,96425.55
2019-03-21T05:56:25.831Z,96422.38
2019-03-21T05:58:55.348Z,96418.46
2019-03-21T06:01:24.890Z,96418.90
2019-03-21T06:03:54.559Z,96423.86
2019-03-21T06:06:49.667Z,96423.08
2019-03-21T06:09:22.367Z,96417.73
2019-03-21T06:11:56.900Z,96424.90
2019-03-21T06:14:26.695Z,96421.54
2019-03-21T06:16:56.211Z,96414.33
2019-03-21T06:19:33.136Z,96397.73
2019-03-21T06:22:25.141Z,96394.09
2019-03-21T06:25:28.895Z,96396.87
2019-03-21T06:27:58.597Z,96396.42
2019-03-21T06:30:28.091Z,96391.33
2019-03-21T06:32:57.581Z,96389.52
2019-03-21T06:35:27.114Z,96396.84
2019-03-21T06:37:56.629Z,96393.73
2019-03-21T06:40:26.153Z,96395.45
2019-03-21T06:42:55.657Z,96397.67
2019-03-21T06:45:25.220Z,96394.23
2019-03-21T06:47:54.733Z,96389.92
2019-03-21T06:50:24.263Z,96393.88
2019-03-21T06:52:54.650Z,96398.08
2019-03-21T06:55:24.752Z,96400.88
2019-03-21T06:57:54.259Z,96398.13
2019-03-21T07:00:25.034Z,96405.09
2019-03-21T07:02:54.627Z,96403.06
2019-03-21T07:05:26.632Z,96411.41
2019-03-21T07:07:55.563Z,96408.12
2019-03-21T07:10:25.060Z,96409.23
2019-03-21T07:12:54.567Z,96415.98
2019-03-21T07:15:24.050Z,96416.47
2019-03-21T07:17:53.604Z,96421.34
2019-03-21T07:20:23.106Z,96419.31
2019-03-21T07:22:52.645Z,96419.55
2019-03-21T07:25:22.180Z,96423.40
2019-03-21T07:27:51.665Z,96428.31
2019-03-21T07:30:21.693Z,96422.23
2019-03-21T07:32:51.212Z,96426.59
2019-03-21T07:35:20.700Z,96423.36
2019-03-21T07:37:50.207Z,96431.79
2019-03-21T07:40:19.718Z,96424.62
2019-03-21T07:42:49.205Z,96430.81
2019-03-21T07:45:18.690Z,96426.89
2019-03-21T07:47:48.196Z,96425.86
2019-03-21T07:50:17.788Z,96427.66
2019-03-21T07:52:47.288Z,96423.05
2019-03-21T07:55:18.081Z,96424.38
2019-03-21T07:57:47.605Z,96421.92
2019-03-21T08:00:18.785Z,96423.14
2019-03-21T08:02:48.385Z,96426.19
2019-03-21T08:05:18.238Z,96422.44
2019-03-21T08:07:47.766Z,96419.53
2019-03-21T08:10:17.404Z,96415.48
2019-03-21T08:12:46.918Z,96417.41
2019-03-21T08:15:17.625Z,96422.19
2019-03-21T08:17:47.193Z,96426.16
2019-03-21T08:20:18.413Z,96419.78
2019-03-21T08:22:47.921Z,96426.34
2019-03-21T08:25:17.416Z,96428.69
2019-03-21T08:27:46.963Z,96418.83
2019-03-21T08:30:26.785Z,96423.28
2019-03-21T08:32:56.292Z,96424.38
2019-03-21T08:35:25.784Z,96419.45
2019-03-21T08:37:55.295Z,96427.59
2019-03-21T08:40:24.816Z,96433.56
2019-03-21T08:42:54.322Z,96423.45
2019-03-21T08:45:23.811Z,96430.58
2019-03-21T08:47:53.350Z,96431.88
2019-03-21T08:50:22.859Z,96428.41
2019-03-21T08:52:52.364Z,96430.69
2019-03-21T08:55:21.879Z,96429.97
2019-03-21T08:57:51.394Z,96438.60
2019-03-21T09:00:21.012Z,96424.09
2019-03-21T09:02:50.518Z,96440.45
2019-03-21T09:05:20.042Z,96434.94
2019-03-21T09:07:49.577Z,96421.46
2019-03-21T09:10:19.066Z,96420.30
2019-03-21T09:12:48.619Z,96423.78
2019-03-21T09:15:19.379Z,96422.03
2019-03-21T09:17:48.896Z,96418.62
2019-03-21T09:20:19.016Z,96416.29
2019-03-21T09:22:48.582Z,96402.72
2019-03-21T09:25:18.082Z,96411.23
2019-03-21T09:27:48.014Z,96407.68
2019-03-21T09:30:17.737Z,96409.80
2019-03-21T09:32:47.296Z,96412.72
2019-03-21T09:35:16.766Z,96406.81
2019-03-21T09:37:46.301Z,96411.11
2019-03-21T09:40:17.106Z,96405.56
2019-03-21T09:42:46.614Z,96405.53
2019-03-21T09:45:16.248Z,96408.30
2019-03-21T09:47:45.780Z,96396.54
2019-03-21T09:50:27.397Z,96385.64
2019-03-21T09:52:56.975Z,96386.44
2019-03-21T09:55:26.661Z,96400.71
2019-03-21T09:57:57.416Z,96392.55
2019-03-21T10:00:37.204Z,96393.27
2019-03-21T10:03:07.227Z,96386.10
2019-03-21T10:05:36.823Z,96387.94
2019-03-21T10:08:06.599Z,96391.56
2019-03-21T10:10:36.251Z,96392.72
2019-03-21T10:13:06.589Z,96379.44
2019-03-21T10:15:36.127Z,96380.50
2019-03-21T10:18:06.049Z,96388.70
2019-03-21T10:20:35.545Z,96381.48
2019-03-21T10:23:05.114Z,96391.05
2019-03-21T10:25:34.598Z,96377.33
2019-03-21T10:28:04.261Z,96371.48
2019-03-21T10:30:37.291Z,96375.96
2019-03-21T10:33:10.194Z,96375.88
2019-03-21T10:35:39.798Z,96370.19
2019-03-21T10:38:09.443Z,96373.81
2019-03-21T10:40:39.240Z,96372.92
2019-03-21T10:43:10.555Z,96364.61
2019-03-21T10:45:40.358Z,96374.45
2019-03-21T10:48:09.857Z,96375.02
2019-03-21T10:50:41.596Z,96380.00
2019-03-21T10:53:11.344Z,96356.71
2019-03-21T10:55:40.894Z,96372.34
2019-03-21T10:58:10.491Z,96378.62
2019-03-21T11:00:40.082Z,96369.69
2019-03-21T11:03:09.601Z,96371.88
2019-03-21T11:05:39.225Z,96368.67
2019-03-21T11:08:08.784Z,96365.43
2019-03-21T11:10:38.291Z,96355.20
2019-03-21T11:13:07.877Z,96361.31
2019-03-21T11:15:37.379Z,96355.95
2019-03-21T11:18:06.998Z,96344.13
2019-03-21T11:20:40.448Z,96354.48
2019-03-21T11:23:10.112Z,96339.61
2019-03-21T11:25:40.441Z,96337.09
2019-03-21T11:28:12.137Z,96337.46
2019-03-21T11:30:43.457Z,96326.48
2019-03-21T11:33:13.032Z,96334.27
2019-03-21T11:35:42.542Z,96322.56
2019-03-21T11:38:12.112Z,96330.09
2019-03-21T11:40:41.691Z,96333.16
2019-03-21T11:43:11.595Z,96331.11
2019-03-21T11:45:41.113Z,96320.94
2019-03-21T11:48:10.635Z,96320.62
2019-03-21T11:50:40.153Z,96316.61
2019-03-21T11:53:09.644Z,96317.61
2019-03-21T11:55:39.153Z,96300.94
2019-03-21T11:58:27.996Z,96296.96
2019-03-21T12:00:57.508Z,96299.98
2019-03-21T12:03:27.000Z,96309.48
2019-03-21T12:05:56.532Z,96298.14
2019-03-21T12:08:26.049Z,96299.38
2019-03-21T12:10:55.997Z,96292.20
2019-03-21T12:13:25.512Z,96292.00
2019-03-21T12:15:55.025Z,96287.23
2019-03-21T12:18:24.515Z,96287.55
2019-03-21T12:20:54.017Z,96289.20
2019-03-21T12:23:24.475Z,96289.15
2019-03-21T12:25:54.037Z,96286.55
2019-03-21T12:28:23.512Z,96277.06
2019-03-21T12:30:53.092Z,96279.42
2019-03-21T12:33:22.611Z,96271.30
2019-03-21T12:35:52.124Z,96269.34
2019-03-21T12:38:21.611Z,96271.83
2019-03-21T12:40:51.180Z,96269.00
2019-03-21T12:46:41.494Z,96268.41
2019-03-21T12:49:11.045Z,96267.52
2019-03-21T12:51:40.554Z,96262.80
2019-03-21T12:54:10.063Z,96265.08
2019-03-21T12:56:39.601Z,96261.14
2019-03-21T12:59:09.151Z,96260.62
2019-03-21T13:01:38.701Z,96250.22
2019-03-21T13:04:08.223Z,96248.97
2019-03-21T13:06:37.730Z,96244.36
2019-03-21T13:09:08.688Z,96233.16
2019-03-21T13:11:38.224Z,96231.57
2019-03-21T13:14:07.700Z,96222.87
2019-03-21T13:16:37.217Z,96222.13
2019-03-21T13:19:06.702Z,96222.28
2019-03-21T13:21:55.573Z,96221.78
2019-03-21T13:24:25.061Z,96225.95
2019-03-21T13:26:54.567Z,96224.77
2019-03-21T13:29:25.138Z,96228.56
2019-03-21T13:31:54.744Z,96225.82
2019-03-21T13:34:24.228Z,96219.04
2019-03-21T13:36:53.733Z,96223.31
2019-03-21T13:39:23.226Z,96228.77
2019-03-21T13:41:52.737Z,96221.34
2019-03-21T13:44:22.244Z,96221.33
2019-03-21T13:46:51.758Z,96215.89
2019-03-21T13:49:21.277Z,96215.21
2019-03-21T13:51:50.782Z,96220.02
2019-03-21T13:54:20.281Z,96217.73
2019-03-21T13:56:49.780Z,96220.13
2019-03-21T13:59:19.296Z,96218.34
2019-03-21T14:01:48.838Z,96212.39
2019-03-21T14:04:18.385Z,96206.14
2019-03-21T14:06:47.893Z,96202.84
2019-03-21T14:09:20.365Z,96205.14
2019-03-21T14:11:49.931Z,96199.75
2019-03-21T14:14:19.421Z,96199.67
2019-03-21T14:16:50.950Z,96198.43
2019-03-21T14:19:20.208Z,96203.45
2019-03-21T14:21:49.715Z,96200.75
2019-03-21T14:24:19.211Z,96189.13
2019-03-21T14:26:48.724Z,96190.48
2019-03-21T14:29:18.215Z,96195.32
2019-03-21T14:31:47.724Z,96193.88
2019-03-21T14:34:17.225Z,96191.09
2019-03-21T14:36:46.738Z,96191.93
2019-03-21T14:39:16.227Z,96190.71
2019-03-21T14:41:45.709Z,96202.28
2019-03-21T14:44:15.239Z,96186.88
2019-03-21T14:46:44.737Z,96185.23
2019-03-21T14:49:14.250Z,96190.58
2019-03-21T14:51:43.774Z,96194.02
2019-03-21T14:54:13.284Z,96180.11
2019-03-21T14:56:42.759Z,96184.91
2019-03-21T14:59:12.341Z,96177.90
2019-03-21T15:01:41.819Z,96181.19
2019-03-21T15:04:11.356Z,96182.05
2019-03-21T15:06:40.843Z,96182.78
2019-03-21T15:09:10.386Z,96184.83
2019-03-21T15:11:41.167Z,96179.04
2019-03-21T15:14:10.728Z,96177.38
2019-03-21T15:16:40.206Z,96177.03
2019-03-21T15:19:09.741Z,96177.50
2019-03-21T15:21:39.226Z,96178.06
2019-03-21T15:24:10.267Z,96182.63
2019-03-21T15:26:39.749Z,96182.05
2019-03-21T15:29:09.235Z,96182.48
2019-03-21T15:31:38.756Z,96187.02
2019-03-21T15:34:08.252Z,96183.98
2019-03-21T15:36:39.071Z,96177.20
2019-03-21T15:39:09.519Z,96184.85
2019-03-21T15:41:39.308Z,96178.72
2019-03-21T15:44:08.815Z,96181.55
2019-03-21T15:46:38.511Z,96174.87
2019-03-21T15:49:08.293Z,96177.23
2019-03-21T15:51:37.769Z,96182.86
2019-03-21T15:54:07.291Z,96182.56
2019-03-21T15:56:36.792Z,96176.94
2019-03-21T15:59:06.310Z,96177.92
2019-03-21T16:01:36.841Z,96171.84
2019-03-21T16:04:06.441Z,96178.92
2019-03-21T16:06:35.995Z,96182.27
2019-03-21T16:09:07.480Z,96183.93
2019-03-21T16:11:36.963Z,96190.13
2019-03-21T16:14:06.465Z,96184.03
2019-03-21T16:16:36.045Z,96184.35
2019-03-21T16:19:05.849Z,96184.35
2019-03-21T16:21:35.333Z,96191.22
2019-03-21T16:24:05.801Z,96189.27
2019-03-21T16:26:36.790Z,96185.59
2019-03-21T16:29:06.491Z,96187.89
2019-03-21T16:31:36.031Z,96193.71
2019-03-21T16:34:05.544Z,96188.39
2019-03-21T16:36:35.045Z,96190.59
2019-03-21T16:39:06.587Z,96195.20
2019-03-21T16:41:36.131Z,96194.67
2019-03-21T16:44:05.692Z,96199.59
2019-03-21T16:46:35.205Z,96200.02
2019-03-21T16:49:04.684Z,96206.78
2019-03-21T16:52:06.516Z,96203.95
2019-03-21T16:54:36.085Z,96139.19
2019-03-21T16:57:05.595Z,96210.09
2019-03-21T16:59:35.122Z,96211.19
2019-03-21T17:02:04.665Z,96219.67
2019-03-21T17:04:34.171Z,96215.92
2019-03-21T17:07:03.654Z,96217.47
2019-03-21T17:09:33.163Z,96225.36
2019-03-21T17:12:02.671Z,96224.19
2019-03-21T17:14:32.173Z,96225.39
2019-03-21T17:17:01.664Z,96227.00
2019-03-21T17:19:31.306Z,96224.24
2019-03-21T17:22:00.792Z,96223.34
2019-03-21T17:24:30.478Z,96230.69
2019-03-21T17:26:59.948Z,96234.33
2019-03-21T17:29:29.481Z,96237.27
2019-03-21T17:31:58.991Z,96235.87
2019-03-21T17:34:28.533Z,96240.61
2019-03-21T17:36:58.087Z,96243.88
2019-03-21T17:39:27.646Z,96252.43
2019-03-21T17:41:57.141Z,96251.02
2019-03-21T17:44:26.644Z,96249.11
2019-03-21T17:46:56.128Z,96249.11
2019-03-21T17:49:25.633Z,96253.50
2019-03-21T17:51:55.126Z,96254.19
2019-03-21T17:54:24.635Z,96252.03
2019-03-21T17:56:55.147Z,96257.58
2019-03-21T17:59:24.710Z,96256.72
2019-03-21T18:01:54.462Z,96261.92
2019-03-21T18:04:24.162Z,96255.12
2019-03-21T18:06:53.643Z,96256.62
2019-03-21T18:09:23.312Z,96262.25
2019-03-21T18:11:52.848Z,96269.86
2019-03-21T18:14:22.352Z,96259.11
2019-03-21T18:16:53.123Z,96263.88
2019-03-21T18:19:22.634Z,96265.05
2019-03-21T18:21:52.199Z,96271.34
2019-03-21T18:24:21.963Z,96273.44
2019-03-21T18:26:51.449Z,96275.80
2019-03-21T18:29:21.033Z,96276.98
2019-03-21T18:31:50.533Z,96278.37
2019-03-21T18:34:20.563Z,96278.13
2019-03-21T18:36:50.048Z,96290.27
2019-03-21T18:39:19.542Z,96296.66
2019-03-21T18:41:49.081Z,96295.05
2019-03-21T18:44:18.589Z,96300.92
2019-03-21T18:46:48.742Z,96293.93
2019-03-21T18:49:18.240Z,96296.46
2019-03-21T18:51:47.764Z,96300.87
2019-03-21T18:54:17.262Z,96300.42
2019-03-21T18:56:46.775Z,96302.04
2019-03-21T18:59:16.911Z,96298.00
2019-03-21T19:01:57.688Z,96295.98
2019-03-21T19:04:17.647Z,96292.03
2019-03-21T19:06:47.177Z,96294.35
2019-03-21T19:09:16.678Z,96300.49
2019-03-21T19:11:46.184Z,96303.08
2019-03-21T19:14:15.683Z,96299.78
2019-03-21T19:16:45.214Z,96302.91
2019-03-21T19:19:14.709Z,96306.17
2019-03-21T19:21:44.224Z,96307.18
2019-03-21T19:24:14.335Z,96304.50
2019-03-21T19:26:43.912Z,96299.12
2019-03-21T19:29:15.082Z,96295.25
2019-03-21T19:31:44.722Z,96302.84
2019-03-21T19:34:14.206Z,96299.20
2019-03-21T19:36:43.986Z,96299.86
2019-03-21T19:39:13.476Z,96308.45
2019-03-21T19:41:44.619Z,96307.13
2019-03-21T19:44:14.121Z,96305.98
2019-03-21T19:46:43.629Z,96297.38
2019-03-21T19:49:13.189Z,96298.26
2019-03-21T19:51:42.706Z,96301.30
2019-03-21T19:54:12.195Z,96297.78
2019-03-21T19:56:41.715Z,96301.72
2019-03-21T19:59:11.221Z,96302.83
2019-03-21T20:01:40.742Z,96305.05
2019-03-21T20:04:10.253Z,96302.84
2019-03-21T20:06:39.782Z,96300.55
2019-03-21T20:09:09.265Z,96300.27
2019-03-21T20:11:38.930Z,96305.31
2019-03-21T20:14:08.457Z,96301.95
2019-03-21T20:16:57.297Z,96308.73
2019-03-21T20:19:26.789Z,96301.80
2019-03-21T20:21:56.338Z,96304.42
2019-03-21T20:24:25.822Z,96304.14
2019-03-21T20:26:55.531Z,96308.20
2019-03-21T20:29:25.054Z,96305.72
2019-03-21T20:31:54.562Z,96306.73
2019-03-21T20:34:24.080Z,96311.28
2019-03-21T20:36:53.584Z,96309.59
2019-03-21T20:39:23.072Z,96307.14
2019-03-21T20:41:52.581Z,96314.47
2019-03-21T20:44:22.079Z,96310.10
2019-03-21T20:46:51.621Z,96306.86
2019-03-21T20:49:21.267Z,96311.89
2019-03-21T20:51:50.802Z,96309.05
2019-03-21T20:54:20.321Z,96300.04
2019-03-21T20:56:49.845Z,96309.53
2019-03-21T20:59:19.340Z,96301.56
2019-03-21T21:01:48.838Z,96305.66
2019-03-21T21:04:37.671Z,96304.34
2019-03-21T21:07:07.327Z,96303.55
2019-03-21T21:09:36.886Z,96309.19
2019-03-21T21:12:06.440Z,96303.79
2019-03-21T21:14:36.057Z,96302.90
2019-03-21T21:17:05.573Z,96298.95
2019-03-21T21:19:35.492Z,96304.23
2019-03-21T21:22:05.081Z,96303.50
2019-03-21T21:24:34.587Z,96300.97
2019-03-21T21:27:04.470Z,96294.33
2019-03-21T21:29:33.999Z,96292.36
2019-03-21T21:32:03.525Z,96295.00
2019-03-21T21:34:33.071Z,96286.97
2019-03-21T21:37:02.603Z,96295.60
2019-03-21T21:39:32.095Z,96292.27
2019-03-21T21:42:01.610Z,96290.44
2019-03-21T21:44:31.113Z,96288.70
2019-03-21T21:47:00.636Z,96286.81
2019-03-21T21:49:30.145Z,96282.70
2019-03-21T21:51:59.665Z,96289.00
2019-03-21T21:54:29.491Z,96284.38
2019-03-21T21:56:58.989Z,96289.45
2019-03-21T21:59:28.484Z,96286.96
2019-03-21T22:01:58.007Z,96288.25
2019-03-21T22:04:27.497Z,96286.88
2019-03-21T22:06:57.528Z,96284.23
2019-03-21T22:09:27.066Z,96287.36
2019-03-21T22:11:56.562Z,96281.41
2019-03-21T22:14:26.082Z,96286.02
2019-03-21T22:16:55.606Z,96287.84
2019-03-21T22:19:25.202Z,96289.51
2019-03-21T22:21:54.694Z,96284.41
2019-03-21T22:24:24.257Z,96292.14
2019-03-21T22:26:53.745Z,96291.44
2019-03-21T22:29:23.394Z,96295.79
2019-03-21T22:31:52.903Z,96292.38
2019-03-21T22:34:22.433Z,96293.97
2019-03-21T22:36:51.930Z,96291.16
2019-03-21T22:39:21.457Z,96294.50
2019-03-21T22:41:51.706Z,96287.86
2019-03-21T22:44:21.221Z,96280.95
2019-03-21T22:46:50.737Z,96285.09
2019-03-21T22:49:20.260Z,96277.07
2019-03-21T22:52:09.106Z,96275.46
2019-03-21T22:54:38.633Z,96192.42
2019-03-21T22:57:08.136Z,96277.66
2019-03-21T22:59:37.695Z,96275.53
2019-03-21T23:02:26.555Z,96278.66
2019-03-21T23:04:56.070Z,96268.75
2019-03-21T23:07:25.670Z,96268.36
2019-03-21T23:09:55.184Z,96267.93
2019-03-21T23:12:24.686Z,96263.64
2019-03-21T23:14:54.209Z,96263.92
2019-03-21T23:17:23.711Z,96261.57
2019-03-21T23:19:54.066Z,96263.02
2019-03-21T23:22:23.563Z,96261.84
2019-03-21T23:24:53.089Z,96263.02
2019-03-21T23:27:22.591Z,96255.64
2019-03-21T23:29:52.108Z,96250.59
2019-03-21T23:32:22.378Z,96258.16
2019-03-21T23:34:51.909Z,96254.29
2019-03-21T23:37:21.438Z,96261.13
2019-03-21T23:39:51.022Z,96259.27
2019-03-21T23:42:20.548Z,96255.41
2019-03-21T23:44:50.770Z,96259.27
2019-03-21T23:47:20.267Z,96253.31
2019-03-21T23:49:49.783Z,96259.02
2019-03-21T23:52:19.283Z,96253.84
2019-03-21T23:54:48.801Z,96257.48
2019-03-21T23:57:18.299Z,96251.91
2019-03-21T23:59:47.818Z,96254.00
